createdAt,value
2023-02-12T00:01:13.459Z,102709.75
2023-02-12T00:03:40.942Z,102705.00
2023-02-12T00:06:08.466Z,102712.97
2023-02-12T00:08:35.361Z,102719.72
2023-02-12T00:11:13.833Z,102722.47
2023-02-12T00:13:40.681Z,102726.56
2023-02-12T00:16:13.828Z,102730.53
2023-02-12T00:18:40.296Z,102722.75
2023-02-12T00:21:06.966Z,102736.38
2023-02-12T00:23:33.276Z,102737.06
2023-02-12T00:25:59.579Z,102742.81
2023-02-12T00:28:26.314Z,102744.13
2023-02-12T00:30:52.725Z,102740.00
2023-02-12T00:33:19.107Z,102737.06
2023-02-12T00:35:45.437Z,102743.84
2023-02-12T00:38:11.703Z,102747.97
2023-02-12T00:40:38.332Z,102746.69
2023-02-12T00:43:04.631Z,102749.81
2023-02-12T00:45:30.932Z,102754.91
2023-02-12T00:47:57.203Z,102750.44
2023-02-12T00:50:23.531Z,102742.78
2023-02-12T00:52:49.859Z,102751.41
2023-02-12T00:57:55.667Z,102764.75
2023-02-12T01:00:22.111Z,102768.81
2023-02-12T01:02:48.459Z,102771.81
2023-02-12T01:05:14.770Z,102781.56
2023-02-12T01:07:41.162Z,102775.72
2023-02-12T01:10:08.873Z,102779.88
2023-02-12T01:12:35.257Z,102771.91
2023-02-12T01:15:01.586Z,102773.75
2023-02-12T01:17:27.897Z,102771.28
2023-02-12T01:19:57.927Z,102770.59
2023-02-12T01:22:24.944Z,102778.66
2023-02-12T01:24:51.232Z,102786.66
2023-02-12T01:27:17.572Z,102791.47
2023-02-12T01:29:43.886Z,102792.53
2023-02-12T01:32:11.334Z,102786.38
2023-02-12T01:34:38.067Z,102782.09
2023-02-12T01:37:04.447Z,102787.19
2023-02-12T01:39:30.776Z,102789.13
2023-02-12T01:41:57.148Z,102796.25
2023-02-12T01:44:28.563Z,102797.28
2023-02-12T01:46:57.855Z,102809.84
2023-02-12T01:49:43.281Z,102806.03
2023-02-12T01:52:13.342Z,102808.25
2023-02-12T01:54:41.290Z,102807.22
2023-02-12T01:57:09.286Z,102807.00
2023-02-12T01:59:37.545Z,102801.44
2023-02-12T02:02:05.105Z,102811.22
2023-02-12T02:04:40.018Z,102812.72
2023-02-12T02:07:08.117Z,102810.19
2023-02-12T02:09:37.257Z,102816.53
2023-02-12T02:12:04.099Z,102820.84
2023-02-12T02:14:30.456Z,102817.13
2023-02-12T02:17:30.852Z,102827.50
2023-02-12T02:20:28.684Z,102824.59
2023-02-12T02:23:39.241Z,102822.66
2023-02-12T02:26:44.984Z,102819.44
2023-02-12T02:29:20.064Z,102814.00
2023-02-12T02:31:52.244Z,102819.44
2023-02-12T02:34:29.316Z,102815.84
2023-02-12T02:37:15.008Z,102810.84
2023-02-12T02:39:50.627Z,102810.44
2023-02-12T02:42:24.839Z,102821.31
2023-02-12T02:45:02.087Z,102809.97
2023-02-12T02:47:45.855Z,102818.22
2023-02-12T02:50:16.726Z,102822.91
2023-02-12T02:52:49.907Z,102823.97
2023-02-12T02:55:20.127Z,102820.03
2023-02-12T02:57:58.603Z,102830.06
2023-02-12T03:00:33.627Z,102832.59
2023-02-12T03:03:06.468Z,102832.84
2023-02-12T03:05:37.820Z,102837.69
2023-02-12T03:08:15.166Z,102844.00
2023-02-12T03:13:32.272Z,102847.84
2023-02-12T03:16:04.539Z,102846.09
2023-02-12T03:18:36.217Z,102855.41
2023-02-12T03:21:09.587Z,102850.69
2023-02-12T03:23:39.349Z,102860.97
2023-02-12T03:26:15.603Z,102860.06
2023-02-12T03:28:42.213Z,102860.97
2023-02-12T03:31:41.969Z,102862.38
2023-02-12T03:34:16.583Z,102861.41
2023-02-12T03:36:48.305Z,102866.94
2023-02-12T03:39:51.989Z,102864.66
2023-02-12T03:42:27.497Z,102871.22
2023-02-12T03:47:35.881Z,102871.72
2023-02-12T03:50:15.504Z,102874.22
2023-02-12T03:52:42.787Z,102878.59
2023-02-12T03:55:10.179Z,102883.25
2023-02-12T03:57:44.454Z,102883.34
2023-02-12T04:00:18.264Z,102884.66
2023-02-12T04:02:45.040Z,102887.19
2023-02-12T04:05:27.894Z,102887.28
2023-02-12T04:07:56.448Z,102893.41
2023-02-12T04:10:30.767Z,102894.66
2023-02-12T04:13:03.437Z,102895.56
2023-02-12T04:15:44.834Z,102897.63
2023-02-12T04:18:41.027Z,102898.19
2023-02-12T04:21:35.334Z,102898.59
2023-02-12T04:24:20.468Z,102900.97
2023-02-12T04:27:06.984Z,102899.06
2023-02-12T04:29:42.015Z,102901.00
2023-02-12T04:32:37.545Z,102900.13
2023-02-12T04:35:27.683Z,102897.59
2023-02-12T04:38:00.720Z,102899.59
2023-02-12T04:40:27.746Z,102897.38
2023-02-12T04:42:54.352Z,102903.44
2023-02-12T04:45:24.585Z,102901.78
2023-02-12T04:47:51.347Z,102908.81
2023-02-12T04:50:18.041Z,102898.09
2023-02-12T04:52:44.671Z,102899.84
2023-02-12T04:55:11.082Z,102901.78
2023-02-12T04:57:37.428Z,102905.00
2023-02-12T05:00:06.657Z,102910.72
2023-02-12T05:02:34.054Z,102907.75
2023-02-12T05:05:00.381Z,102914.31
2023-02-12T05:07:26.989Z,102910.44
2023-02-12T05:09:54.856Z,102906.31
2023-02-12T05:12:21.372Z,102919.34
2023-02-12T05:14:47.691Z,102913.94
2023-02-12T05:17:14.058Z,102916.28
2023-02-12T05:19:40.365Z,102912.41
2023-02-12T05:22:06.766Z,102914.66
2023-02-12T05:24:33.131Z,102915.00
2023-02-12T05:26:59.428Z,102926.63
2023-02-12T05:29:25.739Z,102926.06
2023-02-12T05:31:52.149Z,102923.91
2023-02-12T05:34:18.591Z,102926.84
2023-02-12T05:36:44.909Z,102929.13
2023-02-12T05:39:11.309Z,102924.13
2023-02-12T05:41:37.688Z,102932.81
2023-02-12T05:44:05.084Z,102931.75
2023-02-12T05:46:31.346Z,102940.94
2023-02-12T05:48:58.153Z,102941.63
2023-02-12T05:51:27.248Z,102938.72
2023-02-12T05:53:57.531Z,102942.03
2023-02-12T05:56:26.804Z,102942.13
2023-02-12T05:58:56.090Z,102938.72
2023-02-12T06:01:32.816Z,102937.84
2023-02-12T06:04:00.491Z,102951.41
2023-02-12T06:06:28.280Z,102942.81
2023-02-12T06:08:55.002Z,102951.41
2023-02-12T06:11:21.662Z,102945.72
2023-02-12T06:13:49.023Z,102951.00
2023-02-12T06:16:25.391Z,102950.97
2023-02-12T06:18:52.819Z,102951.94
2023-02-12T06:21:20.533Z,102952.09
2023-02-12T06:23:47.674Z,102956.69
2023-02-12T06:26:14.158Z,102961.09
2023-02-12T06:28:40.572Z,102966.19
2023-02-12T06:31:17.693Z,102970.44
2023-02-12T06:33:44.114Z,102976.50
2023-02-12T06:36:10.481Z,102979.03
2023-02-12T06:38:36.795Z,102992.81
2023-02-12T06:41:04.215Z,102996.34
2023-02-12T06:43:30.439Z,102996.44
2023-02-12T06:45:59.960Z,102999.13
2023-02-12T06:48:26.366Z,102997.09
2023-02-12T06:50:52.663Z,102997.09
2023-02-12T06:53:18.983Z,103000.84
2023-02-12T06:55:45.301Z,103000.28
2023-02-12T06:58:11.615Z,103009.63
2023-02-12T07:00:37.950Z,103009.03
2023-02-12T07:03:04.282Z,103015.69
2023-02-12T07:05:30.559Z,103017.19
2023-02-12T07:07:56.924Z,103014.50
2023-02-12T07:10:23.230Z,103013.09
2023-02-12T07:12:49.524Z,103018.75
2023-02-12T07:15:15.885Z,103027.22
2023-02-12T07:17:42.169Z,103028.25
2023-02-12T07:20:08.954Z,103026.59
2023-02-12T07:22:36.395Z,103035.88
2023-02-12T07:25:02.993Z,103033.53
2023-02-12T07:27:29.306Z,103037.38
2023-02-12T07:29:55.608Z,103028.00
2023-02-12T07:32:21.940Z,103039.84
2023-02-12T07:34:48.253Z,103040.03
2023-02-12T07:37:14.592Z,103036.97
2023-02-12T07:39:40.901Z,103035.59
2023-02-12T07:42:07.221Z,103044.72
2023-02-12T07:44:33.536Z,103043.50
2023-02-12T07:46:59.880Z,103043.16
2023-02-12T07:49:26.185Z,103043.94
2023-02-12T07:51:52.475Z,103047.38
2023-02-12T07:54:18.795Z,103048.34
2023-02-12T07:56:45.192Z,103049.47
2023-02-12T07:59:13.581Z,103050.63
2023-02-12T08:01:42.525Z,103052.63
2023-02-12T08:04:12.346Z,103053.00
2023-02-12T08:06:41.540Z,103053.69
2023-02-12T08:09:11.030Z,103055.00
2023-02-12T08:11:39.589Z,103060.19
2023-02-12T08:14:06.316Z,103060.38
2023-02-12T08:16:37.185Z,103068.97
2023-02-12T08:19:16.629Z,103066.91
2023-02-12T08:21:45.375Z,103069.28
2023-02-12T08:24:11.722Z,103071.03
2023-02-12T08:26:39.418Z,103082.34
2023-02-12T08:29:12.037Z,103078.22
2023-02-12T08:31:42.977Z,103083.81
2023-02-12T08:34:20.936Z,103081.91
2023-02-12T08:36:49.585Z,103086.22
2023-02-12T08:41:42.677Z,103087.97
2023-02-12T08:44:10.161Z,103084.00
2023-02-12T08:46:38.611Z,103095.88
2023-02-12T08:49:12.387Z,103100.16
2023-02-12T08:51:40.968Z,103101.31
2023-02-12T08:54:10.101Z,103108.16
2023-02-12T08:56:36.543Z,103107.72
2023-02-12T08:59:05.085Z,103102.53
2023-02-12T09:01:34.134Z,103100.97
2023-02-12T09:04:01.018Z,103103.50
2023-02-12T09:06:27.758Z,103112.38
2023-02-12T09:08:55.628Z,103117.72
2023-02-12T09:11:25.058Z,103115.19
2023-02-12T09:13:51.327Z,103124.31
2023-02-12T09:16:17.686Z,103126.03
2023-02-12T09:18:44.324Z,103116.91
2023-02-12T09:21:13.288Z,103125.59
2023-02-12T09:23:39.925Z,103129.13
2023-02-12T09:26:11.512Z,103135.16
2023-02-12T09:28:39.355Z,103145.34
2023-02-12T09:31:06.629Z,103139.56
2023-02-12T09:33:33.472Z,103139.81
2023-02-12T09:36:04.624Z,103151.31
2023-02-12T09:38:31.499Z,103147.00
2023-02-12T09:41:18.889Z,103147.97
2023-02-12T09:43:56.620Z,103142.09
2023-02-12T09:46:31.224Z,103145.34
2023-02-12T09:49:18.833Z,103152.97
2023-02-12T09:51:51.384Z,103144.75
2023-02-12T09:54:21.061Z,103151.22
2023-02-12T09:56:56.675Z,103150.94
2023-02-12T09:59:34.899Z,103147.59
2023-02-12T10:02:01.669Z,103153.09
2023-02-12T10:04:28.334Z,103153.38
2023-02-12T10:07:18.778Z,103145.03
2023-02-12T10:10:08.051Z,103146.47
2023-02-12T10:12:56.784Z,103152.47
2023-02-12T10:15:26.235Z,103142.25
2023-02-12T10:18:23.502Z,103153.34
2023-02-12T10:24:12.319Z,103151.91
2023-02-12T10:29:38.060Z,103148.88
2023-02-12T10:34:57.475Z,103148.88
2023-02-12T10:37:31.693Z,103151.28
2023-02-12T10:40:17.046Z,103149.69
2023-02-12T10:42:47.526Z,103146.41
2023-02-12T10:45:20.007Z,103150.09
2023-02-12T10:47:50.324Z,103151.28
2023-02-12T10:50:27.220Z,103143.06
2023-02-12T10:52:56.832Z,103143.25
2023-02-12T10:55:24.480Z,103143.31
2023-02-12T10:57:51.037Z,103146.75
2023-02-12T11:00:31.908Z,103137.44
2023-02-12T11:03:04.111Z,103141.66
2023-02-12T11:05:32.466Z,103141.88
2023-02-12T11:07:59.685Z,103148.44
2023-02-12T11:10:41.989Z,103149.00
2023-02-12T11:13:24.833Z,103144.78
2023-02-12T11:15:51.512Z,103134.22
2023-02-12T11:18:29.696Z,103141.88
2023-02-12T11:21:00.616Z,103139.72
2023-02-12T11:23:28.872Z,103134.69
2023-02-12T11:26:02.030Z,103130.16
2023-02-12T11:28:30.099Z,103138.13
2023-02-12T11:31:20.320Z,103139.88
2023-02-12T11:33:46.688Z,103128.00
2023-02-12T11:36:21.602Z,103130.91
2023-02-12T11:38:58.088Z,103129.59
2023-02-12T11:41:35.148Z,103131.03
2023-02-12T11:44:26.286Z,103127.94
2023-02-12T11:47:18.269Z,103124.91
2023-02-12T11:49:52.158Z,103116.84
2023-02-12T11:52:23.151Z,103123.13
2023-02-12T11:54:52.880Z,103124.44
2023-02-12T11:57:37.865Z,103117.41
2023-02-12T12:00:14.593Z,103119.78
2023-02-12T12:02:47.965Z,103125.25
2023-02-12T12:05:22.018Z,103114.53
2023-02-12T12:08:02.159Z,103118.44
2023-02-12T12:10:57.690Z,103126.97
2023-02-12T12:13:33.492Z,103126.25
2023-02-12T12:16:52.481Z,103127.28
2023-02-12T12:19:24.134Z,103121.00
2023-02-12T12:22:13.614Z,103122.69
2023-02-12T12:24:51.731Z,103121.50
2023-02-12T12:27:25.005Z,103116.13
2023-02-12T12:29:54.918Z,103111.91
2023-02-12T12:32:26.256Z,103116.84
2023-02-12T12:34:52.659Z,103110.63
2023-02-12T12:37:21.900Z,103110.47
2023-02-12T12:39:56.008Z,103096.50
2023-02-12T12:42:37.488Z,103093.75
2023-02-12T12:45:06.738Z,103087.84
2023-02-12T12:47:39.229Z,103082.50
2023-02-12T12:50:36.370Z,103083.53
2023-02-12T12:53:16.209Z,103086.22
2023-02-12T12:56:19.050Z,103082.78
2023-02-12T12:59:03.976Z,103088.06
2023-02-12T13:01:52.827Z,103084.31
2023-02-12T13:04:41.492Z,103090.38
2023-02-12T13:07:34.928Z,103091.78
2023-02-12T13:10:16.203Z,103094.97
2023-02-12T13:12:54.166Z,103094.63
2023-02-12T13:15:29.645Z,103091.13
2023-02-12T13:18:19.003Z,103087.31
2023-02-12T13:20:50.589Z,103091.84
2023-02-12T13:23:35.375Z,103085.84
2023-02-12T13:26:13.568Z,103087.69
2023-02-12T13:28:46.352Z,103090.31
2023-02-12T13:31:32.372Z,103085.84
2023-02-12T13:34:06.883Z,103084.84
2023-02-12T13:36:36.661Z,103085.41
2023-02-12T13:39:16.070Z,103083.50
2023-02-12T13:41:52.332Z,103080.16
2023-02-12T13:44:57.969Z,103072.19
2023-02-12T13:47:46.114Z,103072.00
2023-02-12T13:50:15.422Z,103078.97
2023-02-12T13:52:53.077Z,103070.53
2023-02-12T13:55:22.518Z,103073.75
2023-02-12T13:58:26.733Z,103062.06
2023-02-12T14:00:59.781Z,103071.56
2023-02-12T14:03:28.714Z,103071.13
2023-02-12T14:06:17.543Z,103065.59
2023-02-12T14:08:47.371Z,103065.59
2023-02-12T14:11:21.700Z,103065.03
2023-02-12T14:13:58.404Z,103057.41
2023-02-12T14:16:30.582Z,103055.09
2023-02-12T14:19:37.574Z,103064.72
2023-02-12T14:22:12.890Z,103059.97
2023-02-12T14:24:39.188Z,103064.69
2023-02-12T14:27:18.265Z,103064.88
2023-02-12T14:30:09.198Z,103067.59
2023-02-12T14:32:50.776Z,103063.38
2023-02-12T14:35:29.253Z,103072.06
2023-02-12T14:38:01.010Z,103062.91
2023-02-12T14:40:36.703Z,103066.28
2023-02-12T14:43:23.041Z,103068.38
2023-02-12T14:45:52.912Z,103058.88
2023-02-12T14:48:41.388Z,103069.97
2023-02-12T14:51:19.835Z,103069.78
2023-02-12T14:53:48.350Z,103067.94
2023-02-12T14:56:20.292Z,103069.69
2023-02-12T14:58:46.929Z,103063.56
2023-02-12T15:01:13.309Z,103069.63
2023-02-12T15:03:52.538Z,103062.75
2023-02-12T15:06:24.622Z,103066.81
2023-02-12T15:09:11.740Z,103066.03
2023-02-12T15:11:56.847Z,103065.22
2023-02-12T15:14:27.270Z,103071.06
2023-02-12T15:17:08.024Z,103065.16
2023-02-12T15:19:42.661Z,103075.28
2023-02-12T15:22:32.086Z,103068.38
2023-02-12T15:25:21.341Z,103071.50
2023-02-12T15:27:49.280Z,103069.97
2023-02-12T15:30:26.468Z,103073.03
2023-02-12T15:32:56.140Z,103074.72
2023-02-12T15:35:30.240Z,103071.28
2023-02-12T15:37:58.278Z,103074.75
2023-02-12T15:40:24.685Z,103076.22
2023-02-12T15:43:00.020Z,103074.47
2023-02-12T15:45:35.258Z,103081.88
2023-02-12T15:48:16.821Z,103081.75
2023-02-12T15:50:49.070Z,103080.00
2023-02-12T15:53:16.122Z,103078.94
2023-02-12T15:55:46.165Z,103082.38
2023-02-12T15:58:28.935Z,103086.41
2023-02-12T16:01:01.925Z,103084.56
2023-02-12T16:03:37.386Z,103089.66
2023-02-12T16:06:08.043Z,103091.25
2023-02-12T16:08:35.697Z,103087.81
2023-02-12T16:11:02.627Z,103093.19
2023-02-12T16:13:34.512Z,103105.78
2023-02-12T16:16:17.553Z,103100.59
2023-02-12T16:18:43.935Z,103098.09
2023-02-12T16:21:20.378Z,103101.38
2023-02-12T16:23:48.582Z,103098.19
2023-02-12T16:26:21.222Z,103101.47
2023-02-12T16:28:50.108Z,103099.63
2023-02-12T16:31:17.387Z,103098.53
2023-02-12T16:33:47.376Z,103101.00
2023-02-12T16:36:19.515Z,103094.03
2023-02-12T16:38:48.815Z,103108.41
2023-02-12T16:41:19.938Z,103109.94
2023-02-12T16:44:01.321Z,103111.69
2023-02-12T16:46:33.177Z,103096.28
2023-02-12T16:49:03.117Z,103111.59
2023-02-12T16:51:31.471Z,103115.16
2023-02-12T16:53:59.723Z,103109.13
2023-02-12T16:56:30.854Z,103111.28
2023-02-12T16:58:59.046Z,103111.28
2023-02-12T17:01:36.789Z,103111.13
2023-02-12T17:04:14.770Z,103118.06
2023-02-12T17:06:41.084Z,103120.34
2023-02-12T17:09:07.347Z,103112.53
2023-02-12T17:11:33.659Z,103112.69
2023-02-12T17:13:59.945Z,103112.06
2023-02-12T17:16:31.222Z,103113.50
2023-02-12T17:18:58.652Z,103116.94
2023-02-12T17:21:29.341Z,103125.38
2023-02-12T17:23:55.701Z,103128.88
2023-02-12T17:26:24.872Z,103121.00
2023-02-12T17:28:51.209Z,103128.25
2023-02-12T17:31:17.688Z,103126.81
2023-02-12T17:33:44.111Z,103123.31
2023-02-12T17:36:11.263Z,103134.88
2023-02-12T17:38:37.563Z,103139.66
2023-02-12T17:41:09.806Z,103139.50
2023-02-12T17:43:36.122Z,103144.19
2023-02-12T17:46:08.215Z,103148.91
2023-02-12T17:48:34.595Z,103145.97
2023-02-12T17:51:00.896Z,103144.38
2023-02-12T17:53:27.238Z,103142.00
2023-02-12T17:55:53.558Z,103150.88
2023-02-12T17:58:19.913Z,103146.22
2023-02-12T18:00:46.255Z,103151.94
2023-02-12T18:03:12.620Z,103150.75
2023-02-12T18:05:42.702Z,103156.47
2023-02-12T18:08:09.895Z,103153.75
2023-02-12T18:10:43.641Z,103150.19
2023-02-12T18:13:10.380Z,103160.38
2023-02-12T18:15:39.393Z,103156.22
2023-02-12T18:18:05.954Z,103159.72
2023-02-12T18:20:32.352Z,103156.88
2023-02-12T18:22:58.645Z,103161.00
2023-02-12T18:25:24.962Z,103162.28
2023-02-12T18:27:51.310Z,103162.19
2023-02-12T18:30:18.029Z,103169.63
2023-02-12T18:32:44.350Z,103162.59
2023-02-12T18:35:10.712Z,103166.59
2023-02-12T18:37:37.083Z,103161.47
2023-02-12T18:40:03.888Z,103157.88
2023-02-12T18:42:30.864Z,103163.69
2023-02-12T18:44:57.167Z,103161.59
2023-02-12T18:47:23.470Z,103152.03
2023-02-12T18:49:49.836Z,103150.13
2023-02-12T18:52:16.190Z,103143.09
2023-02-12T18:54:42.602Z,103138.69
2023-02-12T18:57:08.917Z,103147.06
2023-02-12T18:59:41.043Z,103138.09
2023-02-12T19:02:07.669Z,103148.06
2023-02-12T19:04:34.170Z,103147.97
2023-02-12T19:07:00.581Z,103145.91
2023-02-12T19:09:27.087Z,103139.03
2023-02-12T19:11:57.484Z,103145.00
2023-02-12T19:14:25.471Z,103141.31
2023-02-12T19:16:52.666Z,103148.97
2023-02-12T19:19:23.788Z,103140.44
2023-02-12T19:21:50.311Z,103147.03
2023-02-12T19:24:19.929Z,103145.28
2023-02-12T19:26:49.433Z,103152.06
2023-02-12T19:29:15.762Z,103142.66
2023-02-12T19:31:45.430Z,103150.28
2023-02-12T19:34:20.821Z,103145.19
2023-02-12T19:36:49.978Z,103148.53
2023-02-12T19:39:19.587Z,103151.19
2023-02-12T19:41:46.004Z,103148.53
2023-02-12T19:44:19.085Z,103147.56
2023-02-12T19:46:46.665Z,103145.19
2023-02-12T19:49:16.320Z,103148.34
2023-02-12T19:51:43.382Z,103154.44
2023-02-12T19:54:12.572Z,103154.50
2023-02-12T19:56:39.827Z,103151.88
2023-02-12T19:59:06.042Z,103150.13
2023-02-12T20:01:33.284Z,103144.13
2023-02-12T20:03:59.799Z,103150.13
2023-02-12T20:06:29.891Z,103140.81
2023-02-12T20:08:56.569Z,103148.53
2023-02-12T20:11:25.752Z,103142.47
2023-02-12T20:13:52.517Z,103142.56
2023-02-12T20:16:22.136Z,103140.72
2023-02-12T20:18:51.723Z,103137.38
2023-02-12T20:21:25.580Z,103144.13
2023-02-12T20:23:52.202Z,103148.44
2023-02-12T20:26:19.160Z,103145.81
2023-02-12T20:28:46.297Z,103140.72
2023-02-12T20:31:15.556Z,103149.94
2023-02-12T20:33:42.837Z,103145.03
2023-02-12T20:36:09.429Z,103151.78
2023-02-12T20:38:35.764Z,103143.16
2023-02-12T20:41:02.955Z,103148.25
2023-02-12T20:43:30.785Z,103138.06
2023-02-12T20:46:04.423Z,103146.41
2023-02-12T20:48:30.724Z,103141.78
2023-02-12T20:51:03.190Z,103139.91
2023-02-12T20:53:29.501Z,103140.72
2023-02-12T20:56:00.736Z,103134.91
2023-02-12T20:58:27.990Z,103134.13
2023-02-12T21:00:54.241Z,103130.69
2023-02-12T21:03:20.585Z,103128.94
2023-02-12T21:05:46.930Z,103125.59
2023-02-12T21:08:13.197Z,103127.28
2023-02-12T21:10:39.487Z,103126.72
2023-02-12T21:13:05.815Z,103123.94
2023-02-12T21:15:32.133Z,103128.25
2023-02-12T21:17:58.418Z,103130.25
2023-02-12T21:20:24.706Z,103126.91
2023-02-12T21:22:50.997Z,103132.00
2023-02-12T21:25:17.420Z,103126.63
2023-02-12T21:27:43.784Z,103123.00
2023-02-12T21:30:10.353Z,103122.97
2023-02-12T21:32:36.659Z,103120.41
2023-02-12T21:35:02.989Z,103122.88
2023-02-12T21:37:29.297Z,103124.69
2023-02-12T21:39:55.603Z,103122.13
2023-02-12T21:42:21.956Z,103127.50
2023-02-12T21:44:48.278Z,103121.53
2023-02-12T21:47:14.553Z,103118.19
2023-02-12T21:49:40.885Z,103115.06
2023-02-12T21:52:07.228Z,103114.38
2023-02-12T21:54:33.811Z,103116.13
2023-02-12T21:57:00.355Z,103112.88
2023-02-12T21:59:28.159Z,103119.66
2023-02-12T22:01:55.996Z,103114.97
2023-02-12T22:04:22.594Z,103125.06
2023-02-12T22:06:50.711Z,103123.47
2023-02-12T22:09:18.836Z,103119.25
2023-02-12T22:11:45.167Z,103116.81
2023-02-12T22:14:16.819Z,103119.34
2023-02-12T22:16:43.681Z,103119.19
2023-02-12T22:19:10.124Z,103117.69
2023-02-12T22:21:38.659Z,103111.00
2023-02-12T22:24:07.663Z,103123.97
2023-02-12T22:26:34.395Z,103117.13
2023-02-12T22:29:10.377Z,103115.31
2023-02-12T22:31:38.716Z,103118.00
2023-02-12T22:34:08.088Z,103128.06
2023-02-12T22:36:36.142Z,103114.91
2023-02-12T22:39:03.233Z,103118.75
2023-02-12T22:41:29.562Z,103113.47
2023-02-12T22:43:59.350Z,103114.13
2023-02-12T22:46:26.258Z,103117.28
2023-02-12T22:48:52.629Z,103115.44
2023-02-12T22:51:24.876Z,103114.66
2023-02-12T22:53:51.534Z,103111.88
2023-02-12T22:56:18.078Z,103109.31
2023-02-12T22:58:45.055Z,103118.75
2023-02-12T23:01:14.499Z,103115.44
2023-02-12T23:03:41.243Z,103106.59
2023-02-12T23:06:11.319Z,103110.75
2023-02-12T23:08:37.762Z,103120.06
2023-02-12T23:11:06.409Z,103124.63
2023-02-12T23:13:33.750Z,103116.63
2023-02-12T23:16:00.218Z,103123.47
2023-02-12T23:18:26.665Z,103119.97
2023-02-12T23:20:53.535Z,103123.47
2023-02-12T23:23:20.881Z,103119.09
2023-02-12T23:25:47.675Z,103116.19
2023-02-12T23:28:14.436Z,103112.41
2023-02-12T23:30:40.814Z,103118.56
2023-02-12T23:33:07.227Z,103112.50
2023-02-12T23:35:33.494Z,103113.94
2023-02-12T23:37:59.814Z,103111.53
2023-02-12T23:40:26.146Z,103109.41
2023-02-12T23:42:52.483Z,103107.16
2023-02-12T23:45:18.815Z,103098.78
2023-02-12T23:47:45.121Z,103106.53
2023-02-12T23:50:11.431Z,103110.91
2023-02-12T23:52:37.732Z,103110.56
2023-02-12T23:55:04.434Z,103111.38
2023-02-12T23:57:30.712Z,103095.53
2023-02-12T23:59:57.050Z,103097.69
